ADDS METAR Data INFO
IDs: Format: Raw Decoded Include TAF

Data at: 0148 UTC 17 Oct 2017

KFBL 170134Z AUTO 17006KT 10SM CLR 12/03 A3001 RMK AO2
KFBL 170114Z AUTO 16005KT 10SM CLR 12/03 A3002 RMK AO2
KFBL 170054Z AUTO 16005KT 10SM CLR 13/03 A3003 RMK AO2
KFBL 170034Z AUTO 17005KT 10SM CLR 13/03 A3003 RMK AO2
KFBL 170014Z AUTO 17005KT 10SM CLR 14/03 A3003 RMK AO2
KFBL 162354Z AUTO 17006KT 10SM CLR 16/03 A3003 RMK AO2
KFBL 162334Z AUTO 17006KT 10SM CLR 16/03 A3003 RMK AO2
KFBL 162314Z AUTO 18007KT 10SM CLR 17/03 A3003 RMK AO2
KFBL 162254Z AUTO 17007KT 10SM CLR 18/02 A3004 RMK AO2
KFBL 162234Z AUTO 18006KT 10SM CLR 19/02 A3005 RMK AO2
KFBL 162214Z AUTO 19006KT 10SM CLR 19/02 A3006 RMK AO2
KFBL 162154Z AUTO 19008G15KT 10SM CLR 19/02 A3006 RMK AO2
KFBL 162134Z AUTO 19008G14KT 10SM CLR 19/02 A3007 RMK AO2
KFBL 162114Z AUTO 18008G15KT 10SM CLR 19/02 A3007 RMK AO2
KFBL 162054Z AUTO 20011G16KT 10SM CLR 19/02 A3008 RMK AO2
KFBL 162034Z AUTO 21008KT 10SM CLR 19/02 A3009 RMK AO2
KFBL 162014Z AUTO 19007KT 10SM CLR 19/02 A3010 RMK AO2
KFBL 161954Z AUTO 19013G17KT 10SM CLR 19/02 A3011 RMK AO2
KFBL 161934Z AUTO 20010G17KT 10SM CLR 18/02 A3012 RMK AO2
KFBL 161914Z AUTO 18008G17KT 10SM CLR 18/02 A3013 RMK AO2
KFBL 161854Z AUTO 17009G17KT 10SM CLR 17/02 A3015 RMK AO2
KFBL 161834Z AUTO 19007G11KT 10SM CLR 17/02 A3017 RMK AO2
KFBL 161814Z AUTO 22010G14KT 10SM CLR 17/02 A3019 RMK AO2
KFBL 161754Z AUTO 20010KT 10SM CLR 16/02 A3020 RMK AO2
KFBL 161734Z AUTO 19008KT 10SM CLR 16/02 A3021 RMK AO2
KFBL 161714Z AUTO 22008KT 10SM CLR 15/03 A3022 RMK AO2
KFBL 161654Z AUTO 20008KT 10SM CLR 14/03 A3023 RMK AO2
KFBL 161634Z AUTO 21007KT 10SM CLR 13/04 A3024 RMK AO2
KFBL 161614Z AUTO 19006KT 10SM CLR 12/04 A3024 RMK AO2
KFBL 161554Z AUTO 20006KT 10SM CLR 11/04 A3025 RMK AO2
KFBL 161534Z AUTO 21004KT 10SM CLR 10/04 A3025 RMK AO2
KFBL 161514Z AUTO 20005KT 10SM CLR 08/04 A3026 RMK AO2
KFBL 161454Z AUTO 19005KT 10SM CLR 07/03 A3025 RMK AO2
KFBL 161434Z AUTO 20005KT 10SM CLR 06/04 A3025 RMK AO2
KFBL 161414Z AUTO 00000KT 10SM CLR 06/03 A3025 RMK AO2
KFBL 161354Z AUTO 00000KT 10SM CLR 04/02 A3025 RMK AO2
KFBL 161334Z AUTO 00000KT 10SM CLR 03/02 A3025 RMK AO2
KFBL 161314Z AUTO 00000KT 10SM CLR 02/01 A3025 RMK AO2
KFBL 161254Z AUTO 00000KT 10SM CLR 02/01 A3024 RMK AO2
KFBL 161234Z AUTO 00000KT 10SM CLR 02/01 A3025 RMK AO2
KFBL 161214Z AUTO 00000KT 10SM CLR 02/01 A3025 RMK AO2
KFBL 161154Z AUTO 00000KT 10SM CLR 02/01 A3024 RMK AO2
KFBL 161134Z AUTO 00000KT 10SM CLR 02/01 A3024 RMK AO2
KFBL 161114Z AUTO 00000KT 10SM CLR 02/02 A3024 RMK AO2
KFBL 161054Z AUTO 00000KT 10SM CLR 02/01 A3024 RMK AO2
KFBL 161034Z AUTO 00000KT 10SM CLR 02/01 A3024 RMK AO2
KFBL 161014Z AUTO 00000KT 10SM CLR 02/02 A3024 RMK AO2
KFBL 160954Z AUTO 00000KT 10SM CLR 02/02 A3025 RMK AO2
KFBL 160934Z AUTO 17003KT 10SM CLR 01/01 A3024 RMK AO2
KFBL 160914Z AUTO 00000KT 10SM CLR 01/01 A3024 RMK AO2
KFBL 160854Z AUTO 00000KT 10SM CLR 02/01 A3024 RMK AO2
KFBL 160834Z AUTO 00000KT 10SM CLR 02/02 A3024 RMK AO2
KFBL 160814Z AUTO 00000KT 10SM CLR 02/02 A3024 RMK AO2
KFBL 160754Z AUTO 00000KT 10SM CLR 02/01 A3023 RMK AO2
KFBL 160734Z AUTO 00000KT 10SM CLR 02/02 A3024 RMK AO2
KFBL 160714Z AUTO 00000KT 10SM CLR 02/02 A3023 RMK AO2
KFBL 160654Z AUTO 00000KT 10SM CLR 02/01 A3023 RMK AO2
KFBL 160634Z AUTO 00000KT 10SM CLR 02/01 A3023 RMK AO2
KFBL 160614Z AUTO 00000KT 10SM CLR 03/02 A3022 RMK AO2
KFBL 160554Z AUTO 00000KT 10SM CLR 03/02 A3022 RMK AO2
KFBL 160534Z AUTO 00000KT 10SM CLR 03/02 A3022 RMK AO2
KFBL 160514Z AUTO 00000KT 10SM CLR 04/03 A3023 RMK AO2
KFBL 160454Z AUTO 00000KT 10SM CLR 05/03 A3023 RMK AO2
KFBL 160434Z AUTO 00000KT 10SM SCT090 07/03 A3023 RMK AO2
KFBL 160414Z AUTO 00000KT 10SM OVC090 08/04 A3023 RMK AO2
KFBL 160354Z AUTO 00000KT 10SM OVC090 07/04 A3023 RMK AO2
KFBL 160334Z AUTO 00000KT 10SM OVC100 07/04 A3023 RMK AO2
KFBL 160314Z AUTO 00000KT 10SM BKN100 06/03 A3022 RMK AO2
KFBL 160254Z AUTO 00000KT 10SM SCT100 06/03 A3022 RMK AO2
KFBL 160234Z AUTO 23003KT 10SM SCT050 OVC100 07/03 A3022 RMK AO2
KFBL 160214Z AUTO 00000KT 10SM BKN050 BKN100 08/03 A3021 RMK AO2
KFBL 160154Z AUTO 00000KT 10SM SCT100 07/02 A3021 RMK AO2
KFBL 160134Z AUTO 18003KT 10SM SCT100 08/03 A3020 RMK AO2
KFBL 160114Z AUTO 00000KT 10SM SCT090 08/03 A3020 RMK AO2
KFBL 160055Z AUTO 00000KT 10SM OVC090 08/04 A3021 RMK AO2
KFBL 160034Z AUTO 00000KT 10SM OVC090 09/02 A3020 RMK AO2
KFBL 160014Z AUTO 00000KT 10SM OVC090 09/02 A3020 RMK AO2
KFBL 152354Z AUTO 00000KT 10SM OVC090 09/02 A3020 RMK AO2
KFBL 152334Z AUTO 00000KT 10SM OVC090 09/02 A3020 RMK AO2
KFBL 152314Z AUTO 00000KT 10SM OVC090 09/02 A3020 RMK AO2
KFBL 152254Z AUTO 21004KT 10SM OVC100 10/02 A3019 RMK AO2
KFBL 152234Z AUTO 22006KT 10SM OVC100 11/02 A3020 RMK AO2
KFBL 152214Z AUTO 22007KT 10SM OVC100 11/01 A3020 RMK AO2
KFBL 152154Z AUTO 24005KT 10SM OVC110 11/01 A3020 RMK AO2
KFBL 152134Z AUTO 25006KT 10SM SCT110 11/01 A3021 RMK AO2
KFBL 152114Z AUTO 25007KT 10SM SCT110 12/02 A3021 RMK AO2
KFBL 152054Z AUTO 25007KT 222V282 10SM CLR 11/03 A3020 RMK AO2
KFBL 152034Z AUTO 24006KT 10SM CLR 11/03 A3020 RMK AO2
KFBL 152014Z AUTO 28009G14KT 10SM CLR 11/03 A3020 RMK AO2
KFBL 151954Z AUTO 26009G15KT 10SM CLR 11/03 A3021 RMK AO2
KFBL 151934Z AUTO 26009KT 10SM SCT025 11/04 A3021 RMK AO2
KFBL 151914Z AUTO 30006KT 10SM SCT021 10/04 A3021 RMK AO2
KFBL 151854Z AUTO 25008KT 10SM SCT017 09/04 A3022 RMK AO2
KFBL 151834Z AUTO 26007KT 10SM SCT014 08/04 A3022 RMK AO2
KFBL 151814Z AUTO 26007KT 10SM OVC012 07/04 A3023 RMK AO2
KFBL 151754Z AUTO 24010G14KT 10SM OVC012 07/04 A3023 RMK AO2
KFBL 151734Z AUTO 24009KT 10SM OVC014 08/04 A3022 RMK AO2
KFBL 151714Z AUTO 26008KT 10SM OVC014 09/05 A3021 RMK AO2
KFBL 151654Z AUTO 28009KT 10SM BKN014 07/04 A3021 RMK AO2
KFBL 151634Z AUTO 27009KT 10SM BKN016 08/05 A3021 RMK AO2
KFBL 151614Z AUTO 30007KT 10SM BKN018 08/05 A3020 RMK AO2
KFBL 151554Z AUTO 27010G14KT 10SM SCT016 08/05 A3019 RMK AO2
KFBL 151534Z AUTO 29006KT 10SM SCT015 SCT021 08/04 A3018 RMK AO2
KFBL 151514Z AUTO 30007KT 10SM OVC017 07/04 A3018 RMK AO2
KFBL 151454Z AUTO 29008KT 10SM OVC017 07/05 A3017 RMK AO2
KFBL 151434Z AUTO 30009KT 10SM BKN021 OVC026 07/04 A3016 RMK AO2
KFBL 151414Z AUTO 29006KT 10SM SCT016 OVC025 07/05 A3015 RMK AO2
KFBL 151354Z AUTO 32005KT 10SM BKN014 OVC021 06/05 A3015 RMK AO2